createdAt,value
2018-02-10T00:02:15.511Z,83.00
2018-02-10T04:10:24.875Z,83.93
2018-02-10T08:37:41.401Z,76.45
2018-02-10T08:40:14.870Z,81.37
2018-02-10T08:42:45.468Z,76.57
2018-02-10T08:45:29.135Z,94.68
2018-02-10T08:50:38.251Z,84.00
2018-02-10T08:53:07.334Z,64.18
2018-02-10T08:55:38.267Z,114.90
2018-02-10T08:58:07.723Z,143.68
2018-02-10T09:00:36.375Z,84.72
2018-02-10T09:03:05.051Z,87.40
2018-02-10T09:05:34.500Z,85.85
2018-02-10T09:08:03.236Z,87.90
2018-02-10T09:10:32.700Z,86.37
2018-02-10T09:13:01.368Z,94.15
2018-02-10T09:15:31.208Z,86.22
2018-02-10T09:18:02.577Z,88.07
2018-02-10T09:20:31.244Z,90.00
2018-02-10T09:22:59.922Z,87.30
2018-02-10T09:25:28.584Z,86.20
2018-02-10T09:27:57.272Z,87.28
2018-02-10T09:30:25.945Z,84.20
2018-02-10T09:32:54.635Z,87.15
2018-02-10T09:35:23.328Z,95.72
2018-02-10T09:37:52.002Z,85.25
2018-02-10T09:40:20.681Z,91.55
2018-02-10T09:42:50.091Z,89.18
2018-02-10T09:45:19.531Z,89.00
2018-02-10T09:47:48.186Z,80.90
2018-02-10T09:50:17.775Z,86.72
2018-02-10T09:52:47.211Z,94.07
2018-02-10T09:55:16.677Z,83.60
2018-02-10T09:57:46.114Z,99.28
2018-02-10T10:00:16.017Z,85.57
2018-02-10T10:02:44.700Z,86.32
2018-02-10T10:05:16.364Z,89.70
2018-02-10T10:07:47.669Z,95.10
2018-02-10T10:10:16.334Z,89.53
2018-02-10T10:12:47.975Z,86.43
2018-02-10T10:15:22.028Z,81.63
2018-02-10T10:17:55.425Z,83.43
2018-02-10T10:20:42.279Z,92.45
2018-02-10T10:23:10.954Z,77.70
2018-02-10T10:25:41.089Z,82.85
2018-02-10T10:28:09.797Z,81.53
2018-02-10T10:30:38.627Z,92.53
2018-02-10T10:33:07.314Z,105.40
2018-02-10T10:35:35.990Z,84.72
2018-02-10T10:38:06.058Z,84.45
2018-02-10T10:40:34.796Z,89.45
2018-02-10T10:43:03.622Z,79.68
2018-02-10T10:45:33.058Z,84.53
2018-02-10T10:48:04.783Z,85.72
2018-02-10T10:50:35.215Z,79.55
2018-02-10T10:53:03.965Z,87.82
2018-02-10T10:55:33.785Z,88.35
2018-02-10T10:58:02.459Z,77.20
2018-02-10T11:00:32.029Z,80.20
2018-02-10T11:03:00.712Z,78.62
2018-02-10T11:05:29.402Z,61.47
2018-02-10T11:07:58.063Z,60.42
2018-02-10T11:10:27.541Z,57.55
2018-02-10T11:12:56.241Z,55.60
2018-02-10T11:15:25.105Z,52.42
2018-02-10T11:17:53.775Z,54.97
2018-02-10T11:20:22.465Z,50.22
2018-02-10T11:22:51.143Z,51.00
2018-02-10T11:25:19.827Z,44.08
2018-02-10T11:27:51.294Z,48.10
2018-02-10T11:30:19.972Z,49.90
2018-02-10T11:32:48.655Z,52.53
2018-02-10T11:35:17.311Z,53.80
2018-02-10T11:37:47.985Z,54.85
2018-02-10T11:40:16.665Z,51.17
2018-02-10T11:42:45.948Z,49.92
2018-02-10T11:45:14.623Z,49.55
2018-02-10T11:47:43.287Z,44.08
2018-02-10T11:50:11.959Z,42.25
2018-02-10T11:52:40.639Z,45.33
2018-02-10T11:55:09.335Z,44.28
2018-02-10T11:57:38.006Z,47.62
2018-02-10T12:00:06.172Z,52.42
2018-02-10T12:02:34.843Z,51.20
2018-02-10T12:05:03.563Z,40.55
2018-02-10T12:07:32.235Z,45.22
2018-02-10T12:10:01.753Z,40.22
2018-02-10T12:12:30.475Z,40.90
2018-02-10T12:14:59.896Z,37.25
2018-02-10T12:17:28.629Z,40.55
2018-02-10T12:20:00.336Z,39.88
2018-02-10T12:22:29.176Z,34.30
2018-02-10T12:24:57.847Z,39.75
2018-02-10T12:27:26.565Z,36.92
2018-02-10T12:30:14.448Z,38.33
2018-02-10T12:32:43.192Z,42.92
2018-02-10T12:35:12.253Z,43.15
2018-02-10T12:37:40.928Z,45.08
2018-02-10T12:40:09.611Z,42.13
2018-02-10T12:42:38.283Z,45.47
2018-02-10T12:45:06.955Z,44.45
2018-02-10T12:47:53.023Z,46.78
2018-02-10T12:50:21.704Z,43.70
2018-02-10T12:52:50.383Z,49.13
2018-02-10T12:55:19.260Z,49.88
2018-02-10T12:57:47.913Z,36.85
2018-02-10T13:00:17.351Z,40.90
2018-02-10T13:02:46.015Z,45.45
2018-02-10T13:05:14.710Z,45.50
2018-02-10T13:07:43.368Z,43.35
2018-02-10T13:10:12.823Z,42.35
2018-02-10T13:12:41.522Z,38.50
2018-02-10T13:15:10.199Z,43.22
2018-02-10T13:17:38.883Z,41.30
2018-02-10T13:20:07.558Z,42.62
2018-02-10T13:22:36.248Z,44.10
2018-02-10T13:25:04.606Z,49.72
2018-02-10T13:27:33.276Z,39.97
2018-02-10T13:30:02.540Z,39.00
2018-02-10T13:32:31.248Z,43.78
2018-02-10T13:34:59.958Z,44.63
2018-02-10T13:37:29.194Z,40.40
2018-02-10T13:39:57.870Z,44.20
2018-02-10T13:42:26.540Z,40.75
2018-02-10T13:44:55.218Z,43.10
2018-02-10T13:47:23.872Z,38.88
2018-02-10T13:49:52.550Z,42.85
2018-02-10T13:52:21.211Z,37.33
2018-02-10T13:54:49.911Z,48.13
2018-02-10T13:57:19.539Z,47.35
2018-02-10T13:59:48.229Z,49.97
2018-02-10T14:02:16.882Z,48.13
2018-02-10T14:04:45.540Z,48.92
2018-02-10T14:07:14.881Z,41.60
2018-02-10T14:09:43.555Z,41.92
2018-02-10T14:12:12.247Z,47.05
2018-02-10T14:14:40.919Z,45.25
2018-02-10T14:17:09.615Z,56.60
2018-02-10T14:19:38.269Z,46.72
2018-02-10T14:22:07.999Z,47.00
2018-02-10T15:51:00.525Z,60.03
2018-02-10T15:56:07.690Z,60.25
2018-02-10T16:44:08.099Z,74.43
2018-02-10T16:49:48.777Z,65.97
2018-02-10T16:55:22.088Z,76.30
2018-02-10T16:58:01.913Z,74.55
2018-02-10T17:00:45.305Z,71.32
2018-02-10T17:03:26.237Z,69.62
2018-02-10T17:05:58.874Z,83.90
2018-02-10T17:11:26.564Z,70.70
2018-02-10T17:14:03.054Z,69.60
2018-02-10T17:16:53.520Z,65.32
2018-02-10T17:19:39.213Z,66.22
2018-02-10T17:22:07.904Z,69.72
2018-02-10T17:24:36.609Z,70.80
2018-02-10T17:27:05.283Z,66.97
2018-02-10T17:29:34.570Z,73.10
2018-02-10T17:32:03.277Z,63.45
2018-02-10T17:34:51.498Z,62.53
2018-02-10T19:14:37.578Z,64.22
2018-02-10T19:20:18.016Z,69.28
2018-02-10T19:26:12.068Z,71.90
2018-02-10T19:28:40.784Z,66.65
2018-02-10T19:31:09.532Z,78.22
2018-02-10T19:33:38.294Z,74.97
2018-02-10T19:36:07.056Z,62.33
2018-02-10T19:38:35.536Z,73.35
2018-02-10T19:41:05.073Z,69.45
2018-02-10T19:43:34.886Z,65.07
2018-02-10T19:46:05.040Z,72.10
2018-02-10T19:48:33.701Z,61.10
2018-02-10T19:51:02.401Z,62.58
2018-02-10T19:53:31.074Z,63.67
2018-02-10T19:55:59.836Z,58.33
2018-02-10T19:58:29.316Z,67.95
2018-02-10T20:00:58.004Z,68.18
2018-02-10T20:03:26.706Z,72.65
2018-02-10T20:05:55.378Z,69.55
2018-02-10T20:08:24.059Z,67.78
2018-02-10T20:10:52.725Z,67.50
2018-02-10T20:13:22.124Z,61.60
2018-02-10T20:15:50.824Z,62.53
2018-02-10T20:18:20.251Z,55.40
2018-02-10T20:20:48.941Z,69.18
2018-02-10T20:23:17.980Z,62.75
2018-02-10T20:25:46.653Z,58.87
2018-02-10T20:28:15.307Z,66.75
2018-02-10T20:30:43.965Z,76.45
2018-02-10T20:33:12.633Z,58.92
2018-02-10T20:35:41.343Z,64.55
2018-02-10T20:38:10.939Z,65.30
2018-02-10T20:40:39.600Z,56.88
2018-02-10T20:43:08.272Z,60.55
2018-02-10T20:45:37.370Z,61.25
2018-02-10T20:48:06.832Z,59.85
2018-02-10T20:50:35.479Z,59.15
2018-02-10T20:53:04.178Z,56.28
2018-02-10T20:55:32.845Z,56.10
2018-02-10T20:58:02.267Z,59.33
2018-02-10T21:00:30.963Z,64.12
2018-02-10T21:02:59.610Z,58.70
2018-02-10T21:05:29.118Z,61.05
2018-02-10T21:07:58.558Z,54.38
2018-02-10T21:10:27.250Z,65.10
2018-02-10T21:12:55.923Z,57.33
2018-02-10T21:15:24.566Z,54.25
2018-02-10T21:17:53.230Z,52.95
2018-02-10T21:20:21.891Z,51.80
2018-02-10T21:22:50.575Z,58.67
2018-02-10T21:25:19.258Z,54.30
2018-02-10T21:27:47.928Z,61.58
2018-02-10T21:30:17.362Z,57.72
2018-02-10T21:32:46.017Z,54.92
2018-02-10T21:35:14.710Z,64.12
2018-02-10T21:37:43.390Z,65.07
2018-02-10T21:40:12.167Z,63.55
2018-02-10T21:42:42.547Z,73.72
2018-02-10T21:45:11.223Z,77.95
2018-02-10T21:47:39.880Z,72.50
2018-02-10T21:50:08.542Z,80.30
2018-02-10T21:52:37.239Z,81.85
2018-02-10T21:55:06.667Z,78.32
2018-02-10T21:57:35.343Z,83.15
2018-02-10T22:00:03.694Z,79.10
2018-02-10T22:02:32.376Z,90.00
2018-02-10T22:05:01.059Z,84.47
2018-02-10T22:07:29.753Z,78.93
2018-02-10T22:09:58.427Z,60.97
2018-02-10T22:12:27.146Z,74.90
2018-02-10T22:14:59.159Z,66.07
2018-02-10T22:17:27.848Z,66.82
2018-02-10T22:19:56.515Z,62.05
2018-02-10T22:22:25.175Z,71.15
2018-02-10T22:24:53.843Z,64.20
2018-02-10T22:27:22.508Z,59.60
2018-02-10T22:29:52.462Z,63.92
2018-02-10T22:32:21.154Z,66.35
2018-02-10T22:34:50.607Z,66.87
2018-02-10T22:37:19.275Z,57.65
2018-02-10T22:39:47.928Z,59.85
2018-02-10T22:42:17.375Z,62.28
2018-02-10T22:44:46.060Z,64.97
2018-02-10T22:47:14.754Z,65.87
2018-02-10T22:49:43.456Z,68.45
2018-02-10T22:52:12.157Z,62.55
2018-02-10T22:54:40.816Z,74.25
2018-02-10T22:57:09.488Z,65.60
2018-02-10T22:59:40.916Z,67.70
2018-02-10T23:02:09.586Z,71.22
2018-02-10T23:04:39.035Z,61.28
2018-02-10T23:07:07.694Z,67.60
2018-02-10T23:09:36.383Z,73.03
2018-02-10T23:12:05.048Z,77.35
2018-02-10T23:14:34.483Z,66.93
2018-02-10T23:17:03.166Z,68.75
2018-02-10T23:19:31.824Z,60.17
2018-02-10T23:22:01.259Z,63.42
2018-02-10T23:24:29.923Z,65.40
2018-02-10T23:26:59.370Z,74.18
2018-02-10T23:29:28.039Z,62.62
2018-02-10T23:31:56.886Z,65.47
2018-02-10T23:34:25.555Z,57.42
2018-02-10T23:36:54.223Z,58.95
2018-02-10T23:39:22.891Z,61.25
2018-02-10T23:41:51.540Z,57.20
2018-02-10T23:44:20.208Z,61.70
2018-02-10T23:46:48.871Z,77.05
2018-02-10T23:49:17.555Z,62.72
2018-02-10T23:51:46.208Z,55.63
2018-02-10T23:54:14.868Z,58.72
2018-02-10T23:56:43.553Z,55.45
2018-02-10T23:59:12.202Z,57.95
